Wetterdaten: Woche 27.10.14 - 02.11.14 (KW44)
Datum Zeit Temp. A. Feuchte A. Luftdruck Regen Wind Richtung Taupunkt Windchill Windben
27.10.2014 00:00 7,5 C 85 % 1030,3 hPa 0,0 l/m 0,1 km/h N 5,2 C 7,5 C 2,4 km/h
27.10.2014 01:00 6,6 C 86 % 1030,4 hPa 0,0 l/m 0,1 km/h N 4,4 C 6,6 C 1,6 km/h
27.10.2014 02:00 5,3 C 86 % 1030,4 hPa 0,0 l/m 0,2 km/h N 3,1 C 5,3 C 3,2 km/h
27.10.2014 03:00 5,3 C 84 % 1030,3 hPa 0,0 l/m 1,0 km/h N 2,8 C 5,3 C 5,2 km/h
27.10.2014 04:00 5,2 C 83 % 1030,5 hPa 0,0 l/m 1,3 km/h N 2,6 C 5,2 C 7,6 km/h
27.10.2014 05:00 5,3 C 83 % 1030,6 hPa 0,0 l/m 1,0 km/h N 2,6 C 5,3 C 6,4 km/h
27.10.2014 06:00 5,5 C 82 % 1030,7 hPa 0,0 l/m 0,3 km/h N 2,7 C 5,5 C 4,0 km/h
27.10.2014 07:00 5,8 C 82 % 1031,2 hPa 0,0 l/m 0,3 km/h N 3,0 C 5,8 C 3,6 km/h
27.10.2014 08:00 6,3 C 82 % 1031,3 hPa 0,0 l/m 1,2 km/h N 3,4 C 6,3 C 6,4 km/h
27.10.2014 09:00 6,7 C 82 % 1031,3 hPa 0,0 l/m 2,9 km/h N 3,9 C 6,7 C 10,9 km/h
27.10.2014 10:00 7,4 C 85 % 1031,1 hPa 0,0 l/m 1,9 km/h N 5,0 C 7,4 C 8,0 km/h
27.10.2014 11:00 8,6 C 83 % 1030,5 hPa 0,0 l/m 2,9 km/h N 5,8 C 8,6 C 8,0 km/h
27.10.2014 12:00 9,1 C 81 % 1030,0 hPa 0,0 l/m 1,9 km/h N 6,0 C 9,1 C 10,9 km/h
27.10.2014 13:00 9,4 C 79 % 1029,8 hPa 0,0 l/m 1,8 km/h N 6,0 C 9,4 C 10,1 km/h
27.10.2014 14:00 9,2 C 79 % 1029,6 hPa 0,0 l/m 2,0 km/h N 5,7 C 9,2 C 9,7 km/h
27.10.2014 15:00 8,5 C 81 % 1029,3 hPa 0,0 l/m 1,1 km/h N 5,4 C 8,5 C 7,2 km/h
27.10.2014 16:00 7,8 C 82 % 1029,1 hPa 0,0 l/m 0,3 km/h N 4,9 C 7,8 C 4,4 km/h
27.10.2014 17:00 6,5 C 84 % 1029,5 hPa 0,0 l/m 0,1 km/h N 3,9 C 6,5 C 2,0 km/h
27.10.2014 18:00 5,0 C 84 % 1029,8 hPa 0,0 l/m 0,0 km/h N 2,5 C 5,0 C 0,0 km/h
27.10.2014 19:00 3,7 C 85 % 1029,6 hPa 0,0 l/m 0,0 km/h N 1,3 C 3,7 C 0,0 km/h
27.10.2014 20:00 2,6 C 85 % 1029,5 hPa 0,0 l/m 0,0 km/h N 0,4 C 2,6 C 0,0 km/h
27.10.2014 21:00 1,6 C 86 % 1029,4 hPa 0,0 l/m 0,0 km/h N -0,5 C 1,6 C 0,0 km/h
27.10.2014 22:00 0,9 C 86 % 1029,0 hPa 0,0 l/m 0,0 km/h N -1,2 C 0,9 C 0,0 km/h
27.10.2014 23:00 0,7 C 86 % 1028,8 hPa 0,0 l/m 0,0 km/h N -1,4 C 0,7 C 0,0 km/h
28.10.2014 00:00 2,4 C 84 % 1028,3 hPa 0,0 l/m 0,0 km/h N 0,0 C 2,4 C 0,4 km/h
28.10.2014 01:00 3,5 C 84 % 1028,0 hPa 0,0 l/m 0,0 km/h N 1,0 C 3,5 C 0,4 km/h
28.10.2014 02:00 3,7 C 84 % 1027,8 hPa 0,0 l/m 0,1 km/h N 1,2 C 3,7 C 2,4 km/h
28.10.2014 03:00 3,7 C 83 % 1027,6 hPa 0,0 l/m 0,1 km/h N 1,0 C 3,7 C 2,8 km/h
28.10.2014 04:00 3,4 C 83 % 1027,5 hPa 0,0 l/m 0,1 km/h N 0,8 C 3,4 C 2,0 km/h
28.10.2014 05:00 3,5 C 83 % 1027,4 hPa 0,0 l/m 0,3 km/h N 0,9 C 3,5 C 4,8 km/h
28.10.2014 06:00 3,7 C 83 % 1027,3 hPa 0,0 l/m 0,8 km/h N 1,0 C 3,7 C 5,6 km/h
28.10.2014 07:00 3,6 C 82 % 1027,6 hPa 0,0 l/m 0,7 km/h N 0,8 C 3,6 C 5,2 km/h
28.10.2014 08:00 3,7 C 82 % 1027,6 hPa 0,0 l/m 0,7 km/h N 0,9 C 3,7 C 5,6 km/h
28.10.2014 09:00 3,9 C 82 % 1027,5 hPa 0,0 l/m 1,3 km/h N 1,1 C 3,9 C 6,8 km/h
28.10.2014 10:00 4,7 C 81 % 1027,3 hPa 0,0 l/m 1,5 km/h N 1,7 C 4,7 C 7,6 km/h
28.10.2014 11:00 6,6 C 83 % 1026,6 hPa 0,0 l/m 1,4 km/h N 3,9 C 6,6 C 6,4 km/h
28.10.2014 12:00 7,6 C 84 % 1025,8 hPa 0,0 l/m 1,3 km/h N 5,1 C 7,6 C 6,0 km/h
28.10.2014 13:00 8,8 C 80 % 1024,9 hPa 0,0 l/m 5,2 km/h N 5,5 C 8,8 C 15,3 km/h
28.10.2014 14:00 9,4 C 78 % 1024,3 hPa 0,0 l/m 4,1 km/h N 5,7 C 9,4 C 14,9 km/h
28.10.2014 15:00 8,8 C 79 % 1023,8 hPa 0,0 l/m 2,0 km/h N 5,4 C 8,8 C 9,3 km/h
28.10.2014 16:00 7,9 C 81 % 1023,6 hPa 0,0 l/m 0,8 km/h N 4,9 C 7,9 C 6,8 km/h
28.10.2014 17:00 6,4 C 82 % 1023,5 hPa 0,0 l/m 0,0 km/h N 3,6 C 6,4 C 0,8 km/h
28.10.2014 18:00 4,5 C 84 % 1023,4 hPa 0,0 l/m 0,0 km/h N 2,0 C 4,5 C 0,8 km/h
28.10.2014 19:00 3,1 C 85 % 1023,0 hPa 0,0 l/m 0,0 km/h N 0,9 C 3,1 C 0,0 km/h
28.10.2014 20:00 2,6 C 86 % 1022,7 hPa 0,0 l/m 0,0 km/h N 0,5 C 2,6 C 0,4 km/h
28.10.2014 21:00 2,9 C 85 % 1022,3 hPa 0,0 l/m 0,1 km/h N 0,6 C 2,9 C 1,6 km/h
28.10.2014 22:00 2,5 C 85 % 1022,1 hPa 0,0 l/m 0,0 km/h N 0,2 C 2,5 C 2,0 km/h
28.10.2014 23:00 1,7 C 85 % 1021,7 hPa 0,0 l/m 0,0 km/h N -0,6 C 1,7 C 0,0 km/h
29.10.2014 00:00 0,8 C 85 % 1021,4 hPa 0,0 l/m 0,0 km/h N -1,4 C 0,8 C 0,0 km/h
29.10.2014 01:00 0,4 C 85 % 1021,0 hPa 0,0 l/m 0,0 km/h N -1,9 C 0,4 C 0,0 km/h
29.10.2014 02:00 -0,1 C 85 % 1020,8 hPa 0,0 l/m 0,0 km/h N -2,3 C -0,1 C 0,0 km/h
29.10.2014 03:00 -0,6 C 85 % 1020,7 hPa 0,0 l/m 0,0 km/h N -2,8 C -0,6 C 0,0 km/h
29.10.2014 04:00 -0,4 C 84 % 1020,8 hPa 0,0 l/m 0,0 km/h N -2,7 C -0,4 C 0,8 km/h
29.10.2014 05:00 -0,6 C 84 % 1020,9 hPa 0,0 l/m 0,0 km/h N -2,9 C -0,6 C 0,0 km/h
29.10.2014 06:00 -0,9 C 84 % 1021,4 hPa 0,0 l/m 0,1 km/h N -3,3 C -0,9 C 1,2 km/h
29.10.2014 07:00 -0,4 C 83 % 1021,9 hPa 0,0 l/m 0,0 km/h N -2,9 C -0,4 C 0,0 km/h
29.10.2014 08:00 1,4 C 82 % 1021,9 hPa 0,3 l/m 0,0 km/h N -1,5 C 1,4 C 0,0 km/h
29.10.2014 09:00 4,4 C 81 % 1021,9 hPa 0,0 l/m 0,6 km/h N 1,4 C 4,4 C 4,4 km/h
29.10.2014 10:00 6,6 C 84 % 1021,9 hPa 0,0 l/m 3,0 km/h N 4,0 C 6,6 C 9,7 km/h
29.10.2014 11:00 8,4 C 77 % 1021,6 hPa 0,0 l/m 1,7 km/h N 4,5 C 8,4 C 7,6 km/h
29.10.2014 12:00 8,9 C 75 % 1021,2 hPa 0,0 l/m 1,3 km/h N 4,7 C 8,9 C 6,0 km/h
29.10.2014 13:00 9,6 C 74 % 1020,8 hPa 0,0 l/m 1,2 km/h N 5,0 C 9,6 C 6,4 km/h
29.10.2014 14:00 9,7 C 70 % 1020,7 hPa 0,0 l/m 2,3 km/h N 4,5 C 9,7 C 9,3 km/h
29.10.2014 15:00 9,2 C 71 % 1020,7 hPa 0,0 l/m 1,6 km/h N 4,1 C 9,2 C 7,6 km/h
29.10.2014 16:00 8,4 C 73 % 1020,8 hPa 0,0 l/m 1,2 km/h N 3,8 C 8,4 C 6,8 km/h
29.10.2014 17:00 7,7 C 75 % 1021,1 hPa 0,0 l/m 2,0 km/h N 3,6 C 7,7 C 9,7 km/h
29.10.2014 18:00 7,3 C 78 % 1021,6 hPa 0,0 l/m 0,6 km/h N 3,7 C 7,3 C 5,2 km/h
29.10.2014 19:00 7,2 C 80 % 1021,5 hPa 0,0 l/m 0,4 km/h N 3,8 C 7,2 C 4,4 km/h
29.10.2014 20:00 7,0 C 81 % 1021,5 hPa 0,0 l/m 0,0 km/h N 3,9 C 7,0 C 1,2 km/h
29.10.2014 21:00 6,8 C 82 % 1021,6 hPa 0,0 l/m 0,0 km/h N 3,9 C 6,8 C 0,4 km/h
29.10.2014 22:00 6,4 C 83 % 1021,8 hPa 0,0 l/m 0,0 km/h N 3,7 C 6,4 C 0,0 km/h
29.10.2014 23:00 6,2 C 85 % 1022,1 hPa 0,0 l/m 0,0 km/h N 3,8 C 6,2 C 0,4 km/h
30.10.2014 00:00 6,1 C 85 % 1022,4 hPa 0,0 l/m 0,0 km/h N 3,8 C 6,1 C 0,0 km/h
30.10.2014 01:00 6,3 C 86 % 1022,5 hPa 0,0 l/m 0,1 km/h N 4,1 C 6,3 C 1,2 km/h
30.10.2014 02:00 6,3 C 86 % 1022,7 hPa 0,0 l/m 0,0 km/h N 4,1 C 6,3 C 0,0 km/h
30.10.2014 03:00 6,3 C 86 % 1022,9 hPa 0,0 l/m 0,0 km/h N 4,1 C 6,3 C 0,4 km/h
30.10.2014 04:00 6,3 C 86 % 1023,2 hPa 0,0 l/m 0,0 km/h N 4,1 C 6,3 C 0,4 km/h
30.10.2014 05:00 6,3 C 86 % 1023,4 hPa 0,0 l/m 0,0 km/h N 4,1 C 6,3 C 0,4 km/h
30.10.2014 06:00 6,3 C 85 % 1023,8 hPa 0,0 l/m 0,0 km/h N 4,0 C 6,3 C 0,0 km/h
30.10.2014 07:00 6,3 C 85 % 1024,7 hPa 0,0 l/m 0,0 km/h N 4,0 C 6,3 C 0,0 km/h
30.10.2014 08:00 6,6 C 85 % 1025,3 hPa 0,0 l/m 0,0 km/h N 4,2 C 6,6 C 0,0 km/h
30.10.2014 09:00 6,8 C 86 % 1025,6 hPa 0,0 l/m 0,0 km/h N 4,6 C 6,8 C 0,8 km/h
30.10.2014 10:00 7,3 C 86 % 1025,9 hPa 0,0 l/m 0,0 km/h N 5,1 C 7,3 C 0,0 km/h
30.10.2014 11:00 8,1 C 85 % 1025,9 hPa 0,0 l/m 0,3 km/h N 5,7 C 8,1 C 3,6 km/h
30.10.2014 12:00 9,0 C 82 % 1025,7 hPa 0,0 l/m 0,3 km/h N 6,2 C 9,0 C 4,4 km/h
30.10.2014 13:00 9,3 C 81 % 1025,7 hPa 0,0 l/m 0,1 km/h N 6,2 C 9,3 C 2,0 km/h
30.10.2014 14:00 9,4 C 81 % 1025,7 hPa 0,0 l/m 0,0 km/h N 6,3 C 9,4 C 0,0 km/h
30.10.2014 15:00 9,4 C 81 % 1025,8 hPa 0,0 l/m 0,0 km/h N 6,4 C 9,4 C 0,0 km/h
30.10.2014 16:00 9,3 C 82 % 1026,0 hPa 0,0 l/m 0,0 km/h N 6,3 C 9,3 C 0,0 km/h
30.10.2014 17:00 8,6 C 83 % 1026,6 hPa 0,0 l/m 0,0 km/h N 5,8 C 8,6 C 0,0 km/h
30.10.2014 18:00 7,1 C 83 % 1026,8 hPa 0,0 l/m 0,0 km/h N 4,4 C 7,1 C 0,0 km/h
30.10.2014 19:00 5,7 C 85 % 1027,2 hPa 0,0 l/m 0,0 km/h N 3,3 C 5,7 C 0,0 km/h
30.10.2014 20:00 5,8 C 85 % 1027,5 hPa 0,0 l/m 0,0 km/h N 3,5 C 5,8 C 0,0 km/h
30.10.2014 21:00 6,3 C 85 % 1027,8 hPa 0,0 l/m 0,0 km/h N 4,0 C 6,3 C 0,0 km/h
30.10.2014 22:00 5,9 C 85 % 1027,7 hPa 0,0 l/m 0,0 km/h N 3,6 C 5,9 C 0,0 km/h
30.10.2014 23:00 4,5 C 86 % 1027,9 hPa 0,0 l/m 0,0 km/h N 2,3 C 4,5 C 0,0 km/h
31.10.2014 00:00 3,8 C 85 % 1027,8 hPa 0,0 l/m 0,0 km/h N 1,5 C 3,8 C 0,0 km/h
31.10.2014 01:00 4,0 C 85 % 1027,7 hPa 0,0 l/m 0,0 km/h N 1,6 C 4,0 C 0,0 km/h
31.10.2014 02:00 4,6 C 84 % 1027,6 hPa 0,0 l/m 0,0 km/h N 2,0 C 4,6 C 0,0 km/h
31.10.2014 03:00 5,6 C 83 % 1027,2 hPa 0,0 l/m 0,0 km/h N 2,8 C 5,6 C 0,0 km/h
31.10.2014 04:00 6,3 C 82 % 1027,3 hPa 0,0 l/m 0,0 km/h N 3,4 C 6,3 C 0,0 km/h
31.10.2014 05:00 6,4 C 82 % 1027,4 hPa 0,0 l/m 0,0 km/h N 3,5 C 6,4 C 0,0 km/h
31.10.2014 06:00 6,3 C 82 % 1027,5 hPa 0,0 l/m 0,0 km/h N 3,4 C 6,3 C 0,0 km/h
31.10.2014 07:00 5,7 C 82 % 1028,0 hPa 0,0 l/m 0,0 km/h N 2,9 C 5,7 C 0,4 km/h
31.10.2014 08:00 7,1 C 81 % 1028,2 hPa 0,0 l/m 0,5 km/h N 3,9 C 7,1 C 2,4 km/h
31.10.2014 09:00 9,3 C 83 % 1028,4 hPa 0,0 l/m 2,8 km/h N 6,5 C 9,3 C 8,9 km/h
31.10.2014 10:00 10,8 C 77 % 1028,1 hPa 0,0 l/m 3,0 km/h N 6,9 C 10,8 C 8,9 km/h
31.10.2014 11:00 11,8 C 73 % 1028,0 hPa 0,0 l/m 3,4 km/h N 7,1 C 11,8 C 12,5 km/h
31.10.2014 12:00 11,7 C 73 % 1028,1 hPa 0,0 l/m 4,3 km/h N 7,1 C 11,7 C 16,1 km/h
31.10.2014 13:00 11,7 C 73 % 1027,8 hPa 0,0 l/m 3,2 km/h N 7,0 C 11,7 C 13,3 km/h
31.10.2014 14:00 12,0 C 74 % 1027,3 hPa 0,0 l/m 3,2 km/h N 7,5 C 12,0 C 11,7 km/h
31.10.2014 15:00 12,0 C 75 % 1027,0 hPa 0,0 l/m 2,5 km/h N 7,8 C 12,0 C 8,8 km/h
31.10.2014 16:00 11,8 C 77 % 1026,9 hPa 0,0 l/m 0,3 km/h N 7,9 C 11,8 C 3,2 km/h
31.10.2014 17:00 11,4 C 79 % 1026,8 hPa 0,0 l/m 0,1 km/h N 7,9 C 11,4 C 3,2 km/h
31.10.2014 18:00 11,0 C 80 % 1026,9 hPa 0,0 l/m 0,0 km/h N 7,7 C 11,0 C 0,8 km/h
31.10.2014 19:00 9,6 C 81 % 1026,8 hPa 0,0 l/m 0,0 km/h N 6,5 C 9,6 C 0,0 km/h
31.10.2014 20:00 7,9 C 83 % 1027,1 hPa 0,0 l/m 0,0 km/h N 5,1 C 7,9 C 0,4 km/h
31.10.2014 21:00 7,8 C 85 % 1027,0 hPa 0,0 l/m 0,0 km/h N 5,4 C 7,8 C 0,0 km/h
31.10.2014 22:00 7,3 C 85 % 1026,7 hPa 0,0 l/m 0,0 km/h N 5,0 C 7,3 C 0,0 km/h
31.10.2014 23:00 6,2 C 86 % 1026,8 hPa 0,0 l/m 0,0 km/h N 4,0 C 6,2 C 0,0 km/h
01.11.2014 00:00 5,8 C 85 % 1026,7 hPa 0,0 l/m 0,0 km/h N 3,5 C 5,8 C 0,4 km/h
01.11.2014 01:00 7,0 C 84 % 1026,5 hPa 0,0 l/m 0,0 km/h N 4,4 C 7,0 C 0,4 km/h
01.11.2014 02:00 7,6 C 83 % 1026,3 hPa 0,0 l/m 0,0 km/h N 4,9 C 7,6 C 0,0 km/h
01.11.2014 03:00 7,7 C 83 % 1025,9 hPa 0,0 l/m 0,0 km/h N 5,0 C 7,7 C 0,0 km/h
01.11.2014 04:00 7,0 C 84 % 1025,7 hPa 0,0 l/m 0,0 km/h N 4,4 C 7,0 C 0,0 km/h
01.11.2014 05:00 6,2 C 84 % 1025,8 hPa 0,0 l/m 0,0 km/h N 3,6 C 6,2 C 0,0 km/h
01.11.2014 06:00 5,3 C 84 % 1026,0 hPa 0,0 l/m 0,0 km/h N 2,8 C 5,3 C 0,0 km/h
01.11.2014 07:00 5,1 C 84 % 1026,2 hPa 0,0 l/m 0,0 km/h N 2,5 C 5,1 C 0,0 km/h
01.11.2014 08:00 7,0 C 82 % 1026,1 hPa 0,0 l/m 0,1 km/h N 4,0 C 7,0 C 1,2 km/h
01.11.2014 09:00 9,1 C 81 % 1026,1 hPa 0,0 l/m 0,3 km/h N 6,0 C 9,1 C 3,2 km/h
01.11.2014 10:00 11,2 C 84 % 1025,9 hPa 0,0 l/m 1,5 km/h N 8,5 C 11,2 C 6,4 km/h
01.11.2014 11:00 14,0 C 75 % 1025,3 hPa 0,0 l/m 2,5 km/h N 9,6 C 14,0 C 8,9 km/h
01.11.2014 12:00 15,1 C 69 % 1024,8 hPa 0,0 l/m 3,2 km/h N 9,5 C 15,1 C 10,5 km/h
01.11.2014 13:00 15,2 C 70 % 1024,3 hPa 0,0 l/m 2,4 km/h N 9,6 C 15,2 C 8,9 km/h
01.11.2014 14:00 14,9 C 72 % 1024,1 hPa 0,0 l/m 1,0 km/h N 9,9 C 14,9 C 8,0 km/h
01.11.2014 15:00 12,9 C 76 % 1024,1 hPa 0,0 l/m 0,3 km/h N 8,7 C 12,9 C 3,6 km/h
01.11.2014 16:00 10,8 C 80 % 1024,3 hPa 0,0 l/m 1,1 km/h N 7,5 C 10,8 C 6,8 km/h
01.11.2014 17:00 8,4 C 84 % 1024,7 hPa 0,0 l/m 1,1 km/h N 5,9 C 8,4 C 6,0 km/h
01.11.2014 18:00 7,6 C 85 % 1024,7 hPa 0,0 l/m 1,8 km/h N 5,2 C 7,6 C 8,0 km/h
01.11.2014 19:00 7,6 C 83 % 1024,8 hPa 0,0 l/m 1,9 km/h N 4,8 C 7,6 C 6,8 km/h
01.11.2014 20:00 7,4 C 82 % 1024,8 hPa 0,0 l/m 1,4 km/h N 4,6 C 7,4 C 7,6 km/h
01.11.2014 21:00 7,2 C 81 % 1024,4 hPa 0,0 l/m 1,6 km/h N 4,2 C 7,2 C 8,0 km/h
01.11.2014 22:00 7,2 C 81 % 1024,0 hPa 0,0 l/m 1,3 km/h N 4,1 C 7,2 C 6,4 km/h
01.11.2014 23:00 6,9 C 81 % 1023,8 hPa 0,0 l/m 0,9 km/h N 3,8 C 6,9 C 6,0 km/h
02.11.2014 00:00 6,6 C 80 % 1023,6 hPa 0,0 l/m 1,2 km/h N 3,4 C 6,6 C 6,0 km/h
02.11.2014 01:00 6,4 C 80 % 1023,4 hPa 0,0 l/m 1,0 km/h N 3,3 C 6,4 C 6,0 km/h
02.11.2014 02:00 6,3 C 80 % 1023,1 hPa 0,0 l/m 0,8 km/h N 3,1 C 6,3 C 4,8 km/h
02.11.2014 03:00 6,2 C 80 % 1022,8 hPa 0,0 l/m 0,6 km/h N 3,0 C 6,2 C 4,8 km/h
02.11.2014 04:00 6,2 C 80 % 1022,8 hPa 0,0 l/m 0,6 km/h N 3,0 C 6,2 C 5,2 km/h
02.11.2014 05:00 6,1 C 80 % 1022,8 hPa 0,0 l/m 0,3 km/h N 2,9 C 6,1 C 3,6 km/h
02.11.2014 06:00 6,0 C 80 % 1022,8 hPa 0,0 l/m 0,1 km/h N 2,8 C 6,0 C 2,4 km/h
02.11.2014 07:00 5,9 C 79 % 1023,2 hPa 0,0 l/m 0,2 km/h N 2,5 C 5,9 C 2,4 km/h
02.11.2014 08:00 6,0 C 79 % 1023,3 hPa 0,0 l/m 0,5 km/h N 2,6 C 6,0 C 4,4 km/h
02.11.2014 09:00 6,1 C 79 % 1023,3 hPa 0,0 l/m 0,5 km/h N 2,7 C 6,1 C 4,4 km/h
02.11.2014 10:00 6,3 C 79 % 1023,0 hPa 0,0 l/m 0,9 km/h N 2,9 C 6,3 C 6,4 km/h
02.11.2014 11:00 6,5 C 79 % 1022,7 hPa 0,0 l/m 0,7 km/h N 3,2 C 6,5 C 5,6 km/h
02.11.2014 12:00 6,8 C 79 % 1022,3 hPa 0,0 l/m 0,6 km/h N 3,4 C 6,8 C 4,8 km/h
02.11.2014 13:00 7,0 C 79 % 1021,8 hPa 0,0 l/m 0,3 km/h N 3,6 C 7,0 C 2,4 km/h
02.11.2014 14:00 7,3 C 79 % 1021,5 hPa 0,0 l/m 0,1 km/h N 3,9 C 7,3 C 2,8 km/h
02.11.2014 15:00 7,7 C 79 % 1021,1 hPa 0,0 l/m 0,4 km/h N 4,3 C 7,7 C 3,6 km/h
02.11.2014 16:00 8,0 C 79 % 1020,9 hPa 0,0 l/m 0,2 km/h N 4,6 C 8,0 C 2,4 km/h
02.11.2014 17:00 8,0 C 79 % 1020,7 hPa 0,0 l/m 0,0 km/h N 4,6 C 8,0 C 0,4 km/h
02.11.2014 18:00 7,8 C 80 % 1020,6 hPa 0,0 l/m 0,0 km/h N 4,5 C 7,8 C 0,0 km/h
02.11.2014 19:00 7,8 C 79 % 1020,4 hPa 0,0 l/m 0,0 km/h N 4,4 C 7,8 C 0,4 km/h
02.11.2014 20:00 8,1 C 79 % 1020,0 hPa 0,0 l/m 0,3 km/h N 4,8 C 8,1 C 4,4 km/h
02.11.2014 21:00 8,2 C 80 % 1019,7 hPa 0,0 l/m 0,7 km/h N 5,0 C 8,2 C 5,6 km/h
02.11.2014 22:00 7,9 C 80 % 1019,1 hPa 0,0 l/m 1,1 km/h N 4,7 C 7,9 C 7,2 km/h
02.11.2014 23:00 7,7 C 81 % 1018,7 hPa 0,0 l/m 0,8 km/h N 4,6 C 7,7 C 7,2 km/h
Min-Datum _ 29.10.14 01.11.14 02.11.14 - 27.10.14 - 29.10.14 29.10.14 27.10.14
_ Min-Zeit 06:15 12:30 23:30 - 00:15 - 06:15 06:15 01:00
Minimum _ -1,0 C 68 % 1018,6 hPa - 0,0 km/h - -3,4 C -1,0 C 0,0 km/h
Max-Datum _ 01.11.14 27.10.14 27.10.14 29.10.14 28.10.14 - 01.11.14 01.11.14 28.10.14
_ Max-Zeit 14:00 01:15 08:00 08:30 13:45 - 14:00 14:00 14:00
Maximum _ 15,6 C 86 % 1031,3 hPa 0,3 l/m 6,2 km/h
N
- 10,4 C 15,6 C 20,9 km/h
N
Durchschnitt _ 6,7 C 82 % 1025,2 hPa #0,3 l/m 0,7 km/h N 3,7 C 6,7 C 3,6 km/h